createdAt,value
2022-10-12T01:33:20.337Z,15.43
2022-10-12T01:36:15.045Z,20.17
2022-10-12T01:39:11.858Z,14.97
2022-10-12T01:42:05.535Z,17.40
2022-10-12T01:45:03.018Z,17.93
2022-10-12T01:47:55.164Z,17.70
2022-10-12T01:50:51.157Z,18.23
2022-10-12T01:53:46.116Z,16.53
2022-10-12T01:56:44.811Z,16.97
2022-10-12T01:59:42.578Z,17.07
2022-10-12T02:02:35.991Z,17.17
2022-10-12T02:05:37.585Z,17.47
2022-10-12T02:08:29.157Z,15.73
2022-10-12T02:11:19.092Z,14.63
2022-10-12T02:14:11.811Z,16.83
2022-10-12T02:17:01.724Z,18.03
2022-10-12T02:19:53.951Z,15.77
2022-10-12T02:22:45.356Z,19.77
2022-10-12T02:25:34.836Z,21.07
2022-10-12T02:28:26.631Z,22.13
2022-10-12T02:31:20.844Z,15.80
2022-10-12T02:34:14.271Z,16.00
2022-10-12T02:37:08.634Z,21.73
2022-10-12T02:40:04.259Z,21.80
2022-10-12T02:43:09.985Z,19.40
2022-10-12T02:46:01.042Z,17.13
2022-10-12T02:48:50.898Z,19.60
2022-10-12T02:51:40.477Z,16.37
2022-10-12T02:54:29.239Z,19.17
2022-10-12T02:57:18.811Z,18.03
2022-10-12T03:00:08.121Z,16.43
2022-10-12T03:02:56.158Z,19.07
2022-10-12T03:05:47.337Z,21.63
2022-10-12T03:08:35.342Z,20.03
2022-10-12T03:11:23.104Z,19.67
2022-10-12T03:14:15.076Z,19.43
2022-10-12T03:17:02.806Z,19.13
2022-10-12T03:19:50.803Z,19.63
2022-10-12T03:22:38.872Z,23.03
2022-10-12T03:25:26.658Z,24.03
2022-10-12T03:28:15.285Z,22.67
2022-10-12T03:31:05.176Z,23.97
2022-10-12T03:33:53.331Z,22.17
2022-10-12T03:36:41.245Z,25.17
2022-10-12T03:39:29.218Z,25.97
2022-10-12T03:42:16.991Z,23.33
2022-10-12T03:45:05.390Z,23.33
2022-10-12T03:47:54.548Z,22.10
2022-10-12T03:50:42.369Z,19.30
2022-10-12T03:53:31.336Z,25.57
2022-10-12T03:56:19.300Z,21.17
2022-10-12T03:59:07.241Z,20.07
2022-10-12T04:01:54.961Z,22.07
2022-10-12T04:04:44.373Z,19.90
2022-10-12T04:07:32.220Z,23.57
2022-10-12T04:10:20.158Z,22.53
2022-10-12T04:13:07.892Z,20.33
2022-10-12T04:15:55.967Z,23.30
2022-10-12T04:18:43.593Z,21.57
2022-10-12T04:21:33.387Z,20.50
2022-10-12T04:24:21.175Z,21.37
2022-10-12T04:27:09.100Z,21.67
2022-10-12T04:29:57.154Z,17.70
2022-10-12T04:32:45.693Z,20.80
2022-10-12T04:35:33.986Z,22.10
2022-10-12T04:38:22.947Z,23.23
2022-10-12T04:41:10.888Z,22.50
2022-10-12T04:43:59.074Z,24.07
2022-10-12T04:46:47.255Z,22.70
2022-10-12T04:49:35.081Z,20.23
2022-10-12T04:52:22.969Z,19.07
2022-10-12T04:55:12.362Z,21.97
2022-10-12T04:58:00.813Z,21.97
2022-10-12T05:00:49.695Z,20.93
2022-10-12T05:03:41.808Z,18.73
2022-10-12T05:06:29.716Z,20.77
2022-10-12T05:09:17.925Z,21.23
2022-10-12T05:12:07.961Z,23.33
2022-10-12T05:14:55.447Z,19.17
2022-10-12T05:17:43.282Z,21.53
2022-10-12T05:20:31.155Z,20.07
2022-10-12T05:23:19.510Z,23.90
2022-10-12T05:26:07.592Z,20.23
2022-10-12T05:28:56.611Z,22.30
2022-10-12T05:31:44.532Z,19.17
2022-10-12T05:34:32.846Z,20.70
2022-10-12T05:37:20.879Z,19.77
2022-10-12T05:40:09.396Z,21.50
2022-10-12T05:42:56.980Z,18.90
2022-10-12T05:45:45.995Z,19.17
2022-10-12T05:48:34.189Z,23.20
2022-10-12T05:51:26.554Z,20.33
2022-10-12T05:54:16.515Z,22.40
2022-10-12T05:57:04.333Z,20.80
2022-10-12T05:59:52.085Z,23.63
2022-10-12T06:02:41.413Z,22.87
2022-10-12T06:05:28.937Z,20.17
2022-10-12T06:08:16.908Z,25.90
2022-10-12T06:11:04.936Z,22.50
2022-10-12T06:13:54.397Z,21.80
2022-10-12T06:16:42.282Z,28.80
2022-10-12T06:27:54.849Z,28.53
2022-10-12T06:30:42.917Z,32.93
2022-10-12T06:53:08.116Z,32.93
2022-10-12T06:55:55.705Z,35.27
2022-10-12T06:58:43.332Z,34.40
2022-10-12T07:26:42.939Z,41.60
2022-10-12T07:32:18.686Z,51.70
2022-10-12T07:35:07.280Z,41.37
2022-10-12T07:37:58.417Z,45.87
2022-10-12T07:40:46.516Z,43.80
2022-10-12T07:43:35.622Z,48.00
2022-10-12T07:46:23.233Z,45.73
2022-10-12T07:49:13.513Z,48.83
2022-10-12T07:52:01.538Z,39.30
2022-10-12T07:54:49.086Z,44.30
2022-10-12T07:57:36.942Z,37.83
2022-10-12T08:00:26.839Z,42.85
2022-10-12T08:03:16.284Z,32.27
2022-10-12T08:06:10.917Z,35.83
2022-10-12T08:09:00.171Z,40.13
2022-10-12T08:11:47.767Z,31.88
2022-10-12T08:14:35.805Z,28.13
2022-10-12T08:17:25.374Z,32.63
2022-10-12T08:20:13.111Z,32.92
2022-10-12T08:23:01.044Z,32.38
2022-10-12T08:25:53.792Z,30.33
2022-10-12T08:28:42.396Z,34.30
2022-10-12T08:31:30.299Z,28.98
2022-10-12T08:34:19.868Z,28.92
2022-10-12T08:37:07.497Z,34.35
2022-10-12T08:39:58.585Z,28.52
2022-10-12T08:42:56.526Z,32.10
2022-10-12T08:45:52.407Z,24.02
2022-10-12T08:48:48.126Z,21.08
2022-10-12T08:51:46.884Z,20.05
2022-10-12T08:54:41.519Z,27.98
2022-10-12T08:57:29.349Z,18.95
2022-10-12T09:00:19.594Z,22.30
2022-10-12T09:03:16.035Z,24.73
2022-10-12T09:06:11.486Z,18.83
2022-10-12T09:09:09.975Z,17.35
2022-10-12T09:12:10.124Z,16.60
2022-10-12T09:15:03.114Z,16.17
2022-10-12T09:17:53.856Z,14.93
2022-10-12T09:20:45.650Z,15.73
2022-10-12T09:23:38.814Z,17.52
2022-10-12T09:26:36.417Z,17.02
2022-10-12T09:29:26.418Z,13.15
2022-10-12T09:32:40.754Z,14.02
2022-10-12T09:35:28.895Z,10.57
2022-10-12T09:38:16.512Z,10.63
2022-10-12T09:41:05.033Z,9.50
2022-10-12T09:43:56.747Z,11.48
2022-10-12T09:46:47.795Z,10.73
2022-10-12T09:49:43.833Z,9.48
2022-10-12T09:52:41.447Z,10.95
2022-10-12T09:55:29.986Z,9.98
2022-10-12T09:58:21.772Z,10.30
2022-10-12T10:01:21.590Z,9.73
2022-10-12T10:04:25.048Z,7.50
2022-10-12T10:07:27.365Z,11.00
2022-10-12T10:10:18.045Z,10.10
2022-10-12T10:13:06.755Z,8.35
2022-10-12T10:16:06.049Z,9.32
2022-10-12T10:18:59.518Z,6.88
2022-10-12T10:21:47.532Z,6.00
2022-10-12T10:24:35.325Z,9.90
2022-10-12T10:27:37.343Z,7.25
2022-10-12T10:30:33.841Z,5.03
2022-10-12T10:33:25.536Z,8.52
2022-10-12T10:36:21.584Z,5.85
2022-10-12T10:39:19.493Z,4.22
2022-10-12T10:42:11.470Z,5.50
2022-10-12T10:45:02.429Z,4.25
2022-10-12T10:47:54.569Z,4.40
2022-10-12T10:50:44.854Z,4.13
2022-10-12T10:53:44.833Z,6.18
2022-10-12T10:56:33.233Z,4.90
2022-10-12T10:59:28.460Z,4.00
2022-10-12T11:02:33.028Z,6.60
2022-10-12T11:05:25.229Z,4.65
2022-10-12T11:08:18.740Z,5.50
2022-10-12T11:11:13.746Z,4.30
2022-10-12T11:14:08.615Z,3.47
2022-10-12T11:17:00.250Z,5.55
2022-10-12T11:19:53.692Z,3.35
2022-10-12T11:22:49.509Z,4.63
2022-10-12T11:25:46.895Z,2.75
2022-10-12T11:28:39.257Z,3.90
2022-10-12T11:31:32.448Z,5.28
2022-10-12T11:34:23.776Z,6.82
2022-10-12T11:37:20.967Z,4.35
2022-10-12T11:40:23.579Z,4.88
2022-10-12T11:43:20.000Z,4.40
2022-10-12T11:46:13.700Z,5.25
2022-10-12T11:49:07.474Z,3.67
2022-10-12T11:52:00.520Z,2.72
2022-10-12T11:54:53.666Z,3.88
2022-10-12T11:57:41.803Z,6.10
2022-10-12T12:00:37.027Z,5.38
2022-10-12T12:03:33.796Z,5.35
2022-10-12T12:06:53.933Z,6.60
2022-10-12T12:09:49.366Z,9.02
2022-10-12T12:12:58.615Z,3.47
2022-10-12T12:16:24.206Z,3.92
2022-10-12T12:19:41.669Z,4.75
2022-10-12T12:22:33.021Z,5.53
2022-10-12T12:25:35.854Z,6.15
2022-10-12T12:28:25.823Z,4.53
2022-10-12T12:31:17.702Z,5.00
2022-10-12T12:34:08.241Z,4.82
2022-10-12T12:36:58.598Z,7.57
2022-10-12T12:39:52.658Z,4.80
2022-10-12T12:42:41.622Z,5.72
2022-10-12T12:45:55.375Z,5.38
2022-10-12T12:49:04.061Z,7.45
2022-10-12T12:51:55.301Z,7.05
2022-10-12T12:54:53.312Z,4.75
2022-10-12T12:58:04.810Z,4.07
2022-10-12T13:01:04.634Z,7.20
2022-10-12T13:04:33.766Z,4.28
2022-10-12T13:07:54.635Z,4.35
2022-10-12T13:11:01.834Z,5.18
2022-10-12T13:14:00.729Z,4.78
2022-10-12T13:17:31.722Z,7.32
2022-10-12T13:20:19.477Z,5.35
2022-10-12T13:23:11.157Z,8.32
2022-10-12T13:26:04.380Z,3.78
2022-10-12T13:28:53.468Z,4.35
2022-10-12T13:31:45.570Z,3.65
2022-10-12T13:34:42.729Z,3.33
2022-10-12T13:37:33.102Z,4.43
2022-10-12T13:40:31.269Z,5.78
2022-10-12T13:43:25.505Z,3.58
2022-10-12T13:46:14.988Z,4.82
2022-10-12T13:49:03.695Z,3.72
2022-10-12T13:51:53.306Z,6.57
2022-10-12T13:54:42.498Z,4.82
2022-10-12T13:57:41.029Z,6.05
2022-10-12T14:00:31.091Z,4.10
2022-10-12T14:03:18.877Z,4.38
2022-10-12T14:06:07.519Z,4.25
2022-10-12T14:08:58.282Z,3.28
2022-10-12T14:11:47.739Z,5.82
2022-10-12T14:14:37.858Z,3.83
2022-10-12T14:17:27.462Z,3.60
2022-10-12T14:20:18.523Z,6.88
2022-10-12T14:23:13.748Z,6.00
2022-10-12T14:26:02.183Z,6.07
2022-10-12T14:28:50.000Z,6.55
2022-10-12T14:31:55.516Z,2.33
2022-10-12T14:34:46.993Z,3.78
2022-10-12T14:37:34.777Z,4.35
2022-10-12T14:40:30.474Z,4.65
2022-10-12T14:43:24.786Z,4.95
2022-10-12T14:46:12.497Z,4.93
2022-10-12T14:49:00.213Z,4.32
2022-10-12T14:51:50.805Z,5.97
2022-10-12T14:54:38.750Z,3.65
2022-10-12T14:57:29.101Z,3.45
2022-10-12T15:00:18.532Z,2.22
2022-10-12T15:03:06.430Z,2.38
2022-10-12T15:05:54.090Z,3.70
2022-10-12T15:08:44.218Z,5.05
2022-10-12T15:11:32.004Z,4.72
2022-10-12T15:14:19.507Z,3.55
2022-10-12T15:17:07.446Z,5.03
2022-10-12T15:19:55.506Z,5.22
2022-10-12T15:22:44.851Z,4.00
2022-10-12T15:25:43.647Z,3.42
2022-10-12T15:28:31.885Z,4.60
2022-10-12T15:31:19.845Z,5.72
2022-10-12T15:34:13.467Z,8.98
2022-10-12T15:37:04.161Z,3.35
2022-10-12T15:39:54.362Z,3.88
2022-10-12T15:42:43.830Z,2.33
2022-10-12T15:45:36.074Z,2.53
2022-10-12T15:48:24.057Z,5.85
2022-10-12T15:51:19.295Z,4.88
2022-10-12T15:54:07.584Z,4.50
2022-10-12T16:05:22.646Z,5.00
2022-10-12T16:16:42.927Z,4.28
2022-10-12T16:22:18.866Z,5.97
2022-10-12T16:25:08.821Z,4.80
2022-10-12T16:27:57.913Z,9.50
2022-10-12T16:30:46.050Z,4.53
2022-10-12T16:33:35.998Z,4.30
2022-10-12T16:36:23.789Z,4.82
2022-10-12T16:39:11.403Z,4.85
2022-10-12T16:41:59.262Z,2.65
2022-10-12T16:44:47.304Z,4.68
2022-10-12T16:47:38.855Z,3.63
2022-10-12T16:50:32.381Z,3.13
2022-10-12T16:53:20.355Z,4.82
2022-10-12T16:56:08.334Z,5.80
2022-10-12T16:58:55.957Z,5.28
2022-10-12T17:01:43.845Z,3.55
2022-10-12T17:04:31.739Z,6.97
2022-10-12T17:07:21.276Z,4.13
2022-10-12T17:10:10.237Z,3.85
2022-10-12T17:12:58.040Z,4.93
2022-10-12T17:15:45.897Z,4.57
2022-10-12T17:18:33.797Z,3.80
2022-10-12T17:21:21.657Z,4.68
2022-10-12T17:24:12.945Z,4.80
2022-10-12T17:27:01.122Z,7.05
2022-10-12T17:41:02.429Z,7.57
2022-10-12T17:43:51.435Z,9.37
2022-10-12T17:46:39.648Z,8.80
2022-10-12T17:49:28.059Z,11.17
2022-10-12T17:52:16.196Z,11.80
2022-10-12T17:55:04.235Z,11.07
2022-10-12T17:57:53.517Z,13.50
2022-10-12T18:00:41.567Z,12.17
2022-10-12T18:03:29.491Z,11.27
2022-10-12T18:06:20.403Z,9.73
